sensor_id;sensor_type;location;lat;lon;timestamp;pressure;altitude;pressure_sealevel;temperature;humidity
5877;BME280;2964;42.144;24.730;2024-03-02T00:00:19;143733.59;;;8.61;100.00
5877;BME280;2964;42.144;24.730;2024-03-02T00:02:47;143690.97;;;8.43;100.00
5877;BME280;2964;42.144;24.730;2024-03-02T00:05:16;143706.00;;;8.49;100.00
5877;BME280;2964;42.144;24.730;2024-03-02T00:07:44;143679.63;;;8.39;100.00
5877;BME280;2964;42.144;24.730;2024-03-02T00:10:16;143667.06;;;8.34;100.00
5877;BME280;2964;42.144;24.730;2024-03-02T00:12:47;143654.56;;;8.28;100.00
5877;BME280;2964;42.144;24.730;2024-03-02T00:15:40;143662.06;;;8.31;100.00
5877;BME280;2964;42.144;24.730;2024-03-02T00:18:08;143684.63;;;8.41;100.00
5877;BME280;2964;42.144;24.730;2024-03-02T00:20:37;143644.50;;;8.24;100.00
5877;BME280;2964;42.144;24.730;2024-03-02T00:23:05;143726.09;;;8.58;100.00
5877;BME280;2964;42.144;24.730;2024-03-02T00:25:41;143613.22;;;8.11;100.00
5877;BME280;2964;42.144;24.730;2024-03-02T00:28:17;143722.34;;;8.56;100.00
5877;BME280;2964;42.144;24.730;2024-03-02T00:30:59;143678.38;;;8.38;100.00
5877;BME280;2964;42.144;24.730;2024-03-02T00:33:27;143670.84;;;8.35;100.00
5877;BME280;2964;42.144;24.730;2024-03-02T00:35:55;143669.59;;;8.35;100.00
5877;BME280;2964;42.144;24.730;2024-03-02T00:38:22;143685.94;;;8.41;100.00
5877;BME280;2964;42.144;24.730;2024-03-02T00:40:50;143696.00;;;8.45;100.00
5877;BME280;2964;42.144;24.730;2024-03-02T00:43:41;143687.22;;;8.42;100.00
5877;BME280;2964;42.144;24.730;2024-03-02T00:46:13;143685.94;;;8.41;100.00
5877;BME280;2964;42.144;24.730;2024-03-02T00:48:55;143668.38;;;8.34;100.00
5877;BME280;2964;42.144;24.730;2024-03-02T00:51:23;143669.59;;;8.35;100.00
5877;BME280;2964;42.144;24.730;2024-03-02T00:53:52;143645.81;;;8.25;100.00
5877;BME280;2964;42.144;24.730;2024-03-02T00:56:22;143611.94;;;8.11;100.00
5877;BME280;2964;42.144;24.730;2024-03-02T00:58:50;143640.78;;;8.23;100.00
5877;BME280;2964;42.144;24.730;2024-03-02T01:01:17;143685.94;;;8.41;100.00
5877;BME280;2964;42.144;24.730;2024-03-02T01:03:45;143677.16;;;8.38;100.00
5877;BME280;2964;42.144;24.730;2024-03-02T01:06:12;143619.47;;;8.14;100.00
5877;BME280;2964;42.144;24.730;2024-03-02T01:08:39;143589.38;;;8.02;100.00
5877;BME280;2964;42.144;24.730;2024-03-02T01:11:06;143642.03;;;8.23;100.00
5877;BME280;2964;42.144;24.730;2024-03-02T01:13:34;143662.06;;;8.31;100.00
5877;BME280;2964;42.144;24.730;2024-03-02T01:16:01;143599.38;;;8.06;100.00
5877;BME280;2964;42.144;24.730;2024-03-02T01:18:28;143644.50;;;8.24;100.00
5877;BME280;2964;42.144;24.730;2024-03-02T01:20:55;143678.38;;;8.38;100.00
5877;BME280;2964;42.144;24.730;2024-03-02T01:23:21;143654.56;;;8.28;100.00
5877;BME280;2964;42.144;24.730;2024-03-02T01:25:49;143690.97;;;8.43;100.00
5877;BME280;2964;42.144;24.730;2024-03-02T01:28:16;143683.41;;;8.40;100.00
5877;BME280;2964;42.144;24.730;2024-03-02T01:30:44;143682.16;;;8.40;100.00
5877;BME280;2964;42.144;24.730;2024-03-02T01:33:10;143675.84;;;8.37;100.00
5877;BME280;2964;42.144;24.730;2024-03-02T01:35:37;143677.16;;;8.38;100.00
5877;BME280;2964;42.144;24.730;2024-03-02T01:38:04;143679.63;;;8.39;100.00
5877;BME280;2964;42.144;24.730;2024-03-02T01:40:33;143680.91;;;8.39;100.00
5877;BME280;2964;42.144;24.730;2024-03-02T01:43:00;143707.25;;;8.50;100.00
5877;BME280;2964;42.144;24.730;2024-03-02T01:45:27;143660.81;;;8.31;100.00
5877;BME280;2964;42.144;24.730;2024-03-02T01:47:56;143638.25;;;8.22;100.00
5877;BME280;2964;42.144;24.730;2024-03-02T01:50:26;143704.78;;;8.49;100.00
5877;BME280;2964;42.144;24.730;2024-03-02T01:52:54;143599.38;;;8.06;100.00
5877;BME280;2964;42.144;24.730;2024-03-02T01:55:20;143507.91;;;7.68;100.00
5877;BME280;2964;42.144;24.730;2024-03-02T01:57:47;143629.47;;;8.18;100.00
5877;BME280;2964;42.144;24.730;2024-03-02T02:00:16;143687.22;;;8.42;100.00
5877;BME280;2964;42.144;24.730;2024-03-02T02:02:43;143662.06;;;8.31;100.00
5877;BME280;2964;42.144;24.730;2024-03-02T02:05:11;143667.06;;;8.34;100.00
5877;BME280;2964;42.144;24.730;2024-03-02T02:07:40;143664.59;;;8.32;100.00
5877;BME280;2964;42.144;24.730;2024-03-02T02:10:07;143659.59;;;8.30;100.00
5877;BME280;2964;42.144;24.730;2024-03-02T02:12:34;143611.94;;;8.11;100.00
5877;BME280;2964;42.144;24.730;2024-03-02T02:15:01;143606.91;;;8.09;100.00
5877;BME280;2964;42.144;24.730;2024-03-02T02:17:28;143642.03;;;8.23;100.00
5877;BME280;2964;42.144;24.730;2024-03-02T02:19:55;143629.47;;;8.18;100.00
5877;BME280;2964;42.144;24.730;2024-03-02T02:22:23;143604.44;;;8.08;100.00
5877;BME280;2964;42.144;24.730;2024-03-02T02:24:49;143618.22;;;8.14;100.00
5877;BME280;2964;42.144;24.730;2024-03-02T02:27:16;143606.91;;;8.09;100.00
5877;BME280;2964;42.144;24.730;2024-03-02T02:29:43;143633.25;;;8.20;100.00
5877;BME280;2964;42.144;24.730;2024-03-02T02:32:09;143624.47;;;8.16;100.00
5877;BME280;2964;42.144;24.730;2024-03-02T02:34:36;143609.44;;;8.10;100.00
5877;BME280;2964;42.144;24.730;2024-03-02T02:37:03;143610.69;;;8.10;100.00
5877;BME280;2964;42.144;24.730;2024-03-02T02:39:31;143565.56;;;7.92;100.00
5877;BME280;2964;42.144;24.730;2024-03-02T02:41:57;143551.78;;;7.86;100.00
5877;BME280;2964;42.144;24.730;2024-03-02T02:44:26;143565.56;;;7.92;100.00
5877;BME280;2964;42.144;24.730;2024-03-02T02:46:53;143596.91;;;8.05;100.00
5877;BME280;2964;42.144;24.730;2024-03-02T02:49:19;143595.66;;;8.04;100.00
5877;BME280;2964;42.144;24.730;2024-03-02T02:51:46;143559.31;;;7.89;100.00
5877;BME280;2964;42.144;24.730;2024-03-02T02:54:13;143593.13;;;8.03;100.00
5877;BME280;2964;42.144;24.730;2024-03-02T02:56:41;143601.91;;;8.07;100.00
5877;BME280;2964;42.144;24.730;2024-03-02T02:59:07;143599.38;;;8.06;100.00
5877;BME280;2964;42.144;24.730;2024-03-02T03:01:34;143564.31;;;7.91;100.00
5877;BME280;2964;42.144;24.730;2024-03-02T03:04:00;143614.47;;;8.12;100.00
5877;BME280;2964;42.144;24.730;2024-03-02T03:06:27;143619.47;;;8.14;100.00
5877;BME280;2964;42.144;24.730;2024-03-02T03:08:54;143601.91;;;8.07;100.00
5877;BME280;2964;42.144;24.730;2024-03-02T03:11:20;143604.44;;;8.08;100.00
5877;BME280;2964;42.144;24.730;2024-03-02T03:13:49;143596.91;;;8.05;100.00
5877;BME280;2964;42.144;24.730;2024-03-02T03:16:16;143580.59;;;7.98;100.00
5877;BME280;2964;42.144;24.730;2024-03-02T03:18:42;143591.88;;;8.03;100.00
5877;BME280;2964;42.144;24.730;2024-03-02T03:21:10;143566.81;;;7.92;100.00
5877;BME280;2964;42.144;24.730;2024-03-02T03:23:36;143593.13;;;8.03;100.00
5877;BME280;2964;42.144;24.730;2024-03-02T03:26:03;143599.38;;;8.06;100.00
5877;BME280;2964;42.144;24.730;2024-03-02T03:28:30;143590.66;;;8.02;100.00
5877;BME280;2964;42.144;24.730;2024-03-02T03:30:58;143586.88;;;8.01;100.00
5877;BME280;2964;42.144;24.730;2024-03-02T03:33:24;143580.59;;;7.98;100.00
5877;BME280;2964;42.144;24.730;2024-03-02T03:35:51;143594.38;;;8.04;100.00
5877;BME280;2964;42.144;24.730;2024-03-02T03:38:18;143601.91;;;8.07;100.00
5877;BME280;2964;42.144;24.730;2024-03-02T03:40:45;143599.38;;;8.06;100.00
5877;BME280;2964;42.144;24.730;2024-03-02T03:43:13;143589.38;;;8.02;100.00
5877;BME280;2964;42.144;24.730;2024-03-02T03:45:39;143591.88;;;8.03;100.00
5877;BME280;2964;42.144;24.730;2024-03-02T03:48:08;143611.94;;;8.11;100.00
5877;BME280;2964;42.144;24.730;2024-03-02T03:50:34;143613.22;;;8.11;100.00
5877;BME280;2964;42.144;24.730;2024-03-02T03:53:01;143620.72;;;8.15;100.00
5877;BME280;2964;42.144;24.730;2024-03-02T03:55:28;143677.16;;;8.38;100.00
5877;BME280;2964;42.144;24.730;2024-03-02T03:57:54;143643.28;;;8.24;100.00
5877;BME280;2964;42.144;24.730;2024-03-02T04:00:21;143637.03;;;8.21;100.00
5877;BME280;2964;42.144;24.730;2024-03-02T04:02:48;143621.94;;;8.15;100.00
5877;BME280;2964;42.144;24.730;2024-03-02T04:05:16;143632.00;;;8.19;100.00
5877;BME280;2964;42.144;24.730;2024-03-02T04:07:42;143630.72;;;8.19;100.00
5877;BME280;2964;42.144;24.730;2024-03-02T04:10:10;143669.59;;;8.35;100.00
5877;BME280;2964;42.144;24.730;2024-03-02T04:12:38;143624.47;;;8.16;100.00
5877;BME280;2964;42.144;24.730;2024-03-02T04:15:05;143634.50;;;8.20;100.00
5877;BME280;2964;42.144;24.730;2024-03-02T04:17:32;143545.47;;;7.84;100.00
5877;BME280;2964;42.144;24.730;2024-03-02T04:19:59;143627.00;;;8.17;100.00
5877;BME280;2964;42.144;24.730;2024-03-02T04:22:27;143629.47;;;8.18;100.00
5877;BME280;2964;42.144;24.730;2024-03-02T04:24:54;143632.00;;;8.19;100.00
5877;BME280;2964;42.144;24.730;2024-03-02T04:27:20;143644.50;;;8.24;100.00
5877;BME280;2964;42.144;24.730;2024-03-02T04:29:47;143648.28;;;8.26;100.00
5877;BME280;2964;42.144;24.730;2024-03-02T04:32:14;143621.94;;;8.15;100.00
5877;BME280;2964;42.144;24.730;2024-03-02T04:34:40;143598.13;;;8.05;100.00
5877;BME280;2964;42.144;24.730;2024-03-02T04:37:07;143569.34;;;7.93;100.00
5877;BME280;2964;42.144;24.730;2024-03-02T04:39:36;143591.88;;;8.03;100.00
5877;BME280;2964;42.144;24.730;2024-03-02T04:42:03;143584.34;;;8.00;100.00
5877;BME280;2964;42.144;24.730;2024-03-02T04:44:29;143616.94;;;8.13;100.00
5877;BME280;2964;42.144;24.730;2024-03-02T04:46:56;143603.16;;;8.07;100.00
5877;BME280;2964;42.144;24.730;2024-03-02T04:49:23;143604.44;;;8.08;100.00
5877;BME280;2964;42.144;24.730;2024-03-02T04:51:50;143618.22;;;8.14;100.00
5877;BME280;2964;42.144;24.730;2024-03-02T04:54:16;143650.81;;;8.27;100.00
5877;BME280;2964;42.144;24.730;2024-03-02T04:56:44;143634.50;;;8.20;100.00
5877;BME280;2964;42.144;24.730;2024-03-02T04:59:15;143594.38;;;8.04;100.00
5877;BME280;2964;42.144;24.730;2024-03-02T05:01:42;143625.72;;;8.17;100.00
5877;BME280;2964;42.144;24.730;2024-03-02T05:04:09;143595.66;;;8.04;100.00
5877;BME280;2964;42.144;24.730;2024-03-02T05:06:37;143610.69;;;8.10;100.00
5877;BME280;2964;42.144;24.730;2024-03-02T05:09:04;143606.91;;;8.09;100.00
5877;BME280;2964;42.144;24.730;2024-03-02T05:11:31;143616.94;;;8.13;100.00
5877;BME280;2964;42.144;24.730;2024-03-02T05:14:19;143563.03;;;7.91;100.00
5877;BME280;2964;42.144;24.730;2024-03-02T05:16:45;143586.88;;;8.01;100.00
5877;BME280;2964;42.144;24.730;2024-03-02T05:19:12;143591.88;;;8.03;100.00
5877;BME280;2964;42.144;24.730;2024-03-02T05:21:38;143576.81;;;7.97;100.00
5877;BME280;2964;42.144;24.730;2024-03-02T05:24:05;143586.88;;;8.01;100.00
5877;BME280;2964;42.144;24.730;2024-03-02T05:26:32;143573.09;;;7.95;100.00
5877;BME280;2964;42.144;24.730;2024-03-02T05:28:59;143551.78;;;7.86;100.00
5877;BME280;2964;42.144;24.730;2024-03-02T05:31:27;143563.03;;;7.91;100.00
5877;BME280;2964;42.144;24.730;2024-03-02T05:33:53;143565.56;;;7.92;100.00
5877;BME280;2964;42.144;24.730;2024-03-02T05:36:20;143568.09;;;7.93;100.00
5877;BME280;2964;42.144;24.730;2024-03-02T05:38:47;143553.03;;;7.87;100.00
5877;BME280;2964;42.144;24.730;2024-03-02T05:41:13;143549.25;;;7.85;100.00
5877;BME280;2964;42.144;24.730;2024-03-02T05:43:40;143581.88;;;7.99;100.00
5877;BME280;2964;42.144;24.730;2024-03-02T05:46:07;143553.03;;;7.87;100.00
5877;BME280;2964;42.144;24.730;2024-03-02T05:48:35;143551.78;;;7.86;100.00
5877;BME280;2964;42.144;24.730;2024-03-02T05:51:02;143536.75;;;7.80;100.00
5877;BME280;2964;42.144;24.730;2024-03-02T05:53:28;143591.88;;;8.03;100.00
5877;BME280;2964;42.144;24.730;2024-03-02T05:55:55;143535.47;;;7.80;100.00
5877;BME280;2964;42.144;24.730;2024-03-02T05:58:22;143564.31;;;7.91;100.00
5877;BME280;2964;42.144;24.730;2024-03-02T06:00:59;143520.44;;;7.73;100.00
5877;BME280;2964;42.144;24.730;2024-03-02T06:03:26;143541.75;;;7.82;100.00
5877;BME280;2964;42.144;24.730;2024-03-02T06:05:55;143573.09;;;7.95;100.00
5877;BME280;2964;42.144;24.730;2024-03-02T06:08:21;143583.13;;;7.99;100.00
5877;BME280;2964;42.144;24.730;2024-03-02T06:10:48;143584.34;;;8.00;100.00
5877;BME280;2964;42.144;24.730;2024-03-02T06:13:15;143576.81;;;7.97;100.00
5877;BME280;2964;42.144;24.730;2024-03-02T06:15:41;143569.34;;;7.93;100.00
5877;BME280;2964;42.144;24.730;2024-03-02T06:18:08;143560.56;;;7.90;100.00
5877;BME280;2964;42.144;24.730;2024-03-02T06:20:35;143611.94;;;8.11;100.00
5877;BME280;2964;42.144;24.730;2024-03-02T06:23:04;143509.16;;;7.69;100.00
5877;BME280;2964;42.144;24.730;2024-03-02T06:25:30;143553.03;;;7.87;100.00
5877;BME280;2964;42.144;24.730;2024-03-02T06:27:57;143576.81;;;7.97;100.00
5877;BME280;2964;42.144;24.730;2024-03-02T06:30:24;143581.88;;;7.99;100.00
5877;BME280;2964;42.144;24.730;2024-03-02T06:32:50;143634.50;;;8.20;100.00
5877;BME280;2964;42.144;24.730;2024-03-02T06:35:17;143637.03;;;8.21;100.00
5877;BME280;2964;42.144;24.730;2024-03-02T06:37:44;143611.94;;;8.11;100.00
5877;BME280;2964;42.144;24.730;2024-03-02T06:40:15;143611.94;;;8.11;100.00
5877;BME280;2964;42.144;24.730;2024-03-02T06:42:42;143638.25;;;8.22;100.00
5877;BME280;2964;42.144;24.730;2024-03-02T06:45:08;143647.03;;;8.25;100.00
5877;BME280;2964;42.144;24.730;2024-03-02T06:47:35;143652.06;;;8.27;100.00
5877;BME280;2964;42.144;24.730;2024-03-02T06:50:02;143659.59;;;8.30;100.00
5877;BME280;2964;42.144;24.730;2024-03-02T06:52:29;143599.38;;;8.06;100.00
5877;BME280;2964;42.144;24.730;2024-03-02T06:54:56;143673.38;;;8.36;100.00
5877;BME280;2964;42.144;24.730;2024-03-02T06:57:24;143664.59;;;8.32;100.00
5877;BME280;2964;42.144;24.730;2024-03-02T06:59:51;143630.72;;;8.19;100.00
5877;BME280;2964;42.144;24.730;2024-03-02T07:02:20;143604.44;;;8.08;100.00
5877;BME280;2964;42.144;24.730;2024-03-02T07:04:48;143616.94;;;8.13;100.00
5877;BME280;2964;42.144;24.730;2024-03-02T07:07:16;143616.94;;;8.13;100.00
5877;BME280;2964;42.144;24.730;2024-03-02T07:09:43;143632.00;;;8.19;100.00
5877;BME280;2964;42.144;24.730;2024-03-02T07:12:10;143609.44;;;8.10;100.00
5877;BME280;2964;42.144;24.730;2024-03-02T07:14:38;143619.47;;;8.14;100.00
5877;BME280;2964;42.144;24.730;2024-03-02T07:17:27;143623.22;;;8.16;100.00
5877;BME280;2964;42.144;24.730;2024-03-02T07:19:54;143628.25;;;8.18;100.00
5877;BME280;2964;42.144;24.730;2024-03-02T07:22:20;143701.00;;;8.47;100.00
5877;BME280;2964;42.144;24.730;2024-03-02T07:24:48;143699.75;;;8.47;100.00
5877;BME280;2964;42.144;24.730;2024-03-02T07:27:15;143670.84;;;8.35;100.00
5877;BME280;2964;42.144;24.730;2024-03-02T07:29:43;143678.38;;;8.38;100.00
5877;BME280;2964;42.144;24.730;2024-03-02T07:32:10;143637.03;;;8.21;100.00
5877;BME280;2964;42.144;24.730;2024-03-02T07:34:37;143702.25;;;8.48;100.00
5877;BME280;2964;42.144;24.730;2024-03-02T07:37:04;143699.75;;;8.47;100.00
5877;BME280;2964;42.144;24.730;2024-03-02T07:39:31;143729.81;;;8.59;100.00
5877;BME280;2964;42.144;24.730;2024-03-02T07:41:57;143722.34;;;8.56;100.00
5877;BME280;2964;42.144;24.730;2024-03-02T07:44:24;143713.56;;;8.53;100.00
5877;BME280;2964;42.144;24.730;2024-03-02T07:46:52;143711.03;;;8.52;100.00
5877;BME280;2964;42.144;24.730;2024-03-02T07:49:19;143684.63;;;8.41;100.00
5877;BME280;2964;42.144;24.730;2024-03-02T07:51:46;143701.00;;;8.47;100.00
5877;BME280;2964;42.144;24.730;2024-03-02T07:54:12;143653.28;;;8.28;100.00
5877;BME280;2964;42.144;24.730;2024-03-02T07:56:39;143737.38;;;8.62;100.00
5877;BME280;2964;42.144;24.730;2024-03-02T07:59:06;143736.13;;;8.62;100.00
5877;BME280;2964;42.144;24.730;2024-03-02T08:01:33;143723.56;;;8.57;100.00
5877;BME280;2964;42.144;24.730;2024-03-02T08:04:01;143731.13;;;8.60;100.00
5877;BME280;2964;42.144;24.730;2024-03-02T08:06:30;143737.38;;;8.62;100.00
5877;BME280;2964;42.144;24.730;2024-03-02T08:08:57;143758.69;;;8.71;100.00
5877;BME280;2964;42.144;24.730;2024-03-02T08:11:24;143731.13;;;8.60;100.00
5877;BME280;2964;42.144;24.730;2024-03-02T08:13:52;143782.50;;;8.81;100.00
5877;BME280;2964;42.144;24.730;2024-03-02T08:16:20;143738.59;;;8.63;100.00
5877;BME280;2964;42.144;24.730;2024-03-02T08:18:47;143719.81;;;8.55;100.00
5877;BME280;2964;42.144;24.730;2024-03-02T08:21:16;143729.81;;;8.59;100.00
5877;BME280;2964;42.144;24.730;2024-03-02T08:23:43;143774.97;;;8.78;100.00
5877;BME280;2964;42.144;24.730;2024-03-02T08:26:10;143742.38;;;8.64;100.00
5877;BME280;2964;42.144;24.730;2024-03-02T08:28:37;143754.94;;;8.69;100.00
5877;BME280;2964;42.144;24.730;2024-03-02T08:31:06;143822.66;;;8.97;100.00
5877;BME280;2964;42.144;24.730;2024-03-02T08:33:33;143855.25;;;9.11;100.00
5877;BME280;2964;42.144;24.730;2024-03-02T08:36:00;143849.00;;;9.08;100.00
5877;BME280;2964;42.144;24.730;2024-03-02T08:38:28;143744.91;;;8.65;100.00
5877;BME280;2964;42.144;24.730;2024-03-02T08:40:55;143840.22;;;9.04;100.00
5877;BME280;2964;42.144;24.730;2024-03-02T08:43:21;143825.19;;;8.98;100.00
5877;BME280;2964;42.144;24.730;2024-03-02T08:45:49;143758.69;;;8.71;100.00
5877;BME280;2964;42.144;24.730;2024-03-02T08:48:16;143757.47;;;8.71;100.00
5877;BME280;2964;42.144;24.730;2024-03-02T08:50:43;143767.47;;;8.75;100.00
5877;BME280;2964;42.144;24.730;2024-03-02T08:53:09;143778.75;;;8.79;100.00
5877;BME280;2964;42.144;24.730;2024-03-02T08:55:37;143737.38;;;8.62;100.00
5877;BME280;2964;42.144;24.730;2024-03-02T08:58:05;143732.34;;;8.60;100.00
5877;BME280;2964;42.144;24.730;2024-03-02T09:00:32;143737.38;;;8.62;100.00
5877;BME280;2964;42.144;24.730;2024-03-02T09:02:59;143821.41;;;8.97;100.00
5877;BME280;2964;42.144;24.730;2024-03-02T09:05:25;143810.09;;;8.92;100.00
5877;BME280;2964;42.144;24.730;2024-03-02T09:07:52;143810.09;;;8.92;100.00
5877;BME280;2964;42.144;24.730;2024-03-02T09:10:19;143832.69;;;9.01;100.00
5877;BME280;2964;42.144;24.730;2024-03-02T09:12:47;143753.69;;;8.69;100.00
5877;BME280;2964;42.144;24.730;2024-03-02T09:15:14;143762.47;;;8.73;100.00
5877;BME280;2964;42.144;24.730;2024-03-02T09:17:40;143791.28;;;8.84;100.00
5877;BME280;2964;42.144;24.730;2024-03-02T09:20:08;143768.72;;;8.75;100.00
5877;BME280;2964;42.144;24.730;2024-03-02T09:22:35;143780.03;;;8.80;100.00
5877;BME280;2964;42.144;24.730;2024-03-02T09:25:01;143805.09;;;8.90;100.00
5877;BME280;2964;42.144;24.730;2024-03-02T09:27:28;143647.03;;;8.25;100.00
5877;BME280;2964;42.144;24.730;2024-03-02T09:29:56;143792.53;;;8.85;100.00
5877;BME280;2964;42.144;24.730;2024-03-02T09:32:23;143787.53;;;8.83;100.00
5877;BME280;2964;42.144;24.730;2024-03-02T09:34:50;143797.56;;;8.87;100.00
5877;BME280;2964;42.144;24.730;2024-03-02T09:37:18;143822.66;;;8.97;100.00
5877;BME280;2964;42.144;24.730;2024-03-02T09:39:45;143787.53;;;8.83;100.00
5877;BME280;2964;42.144;24.730;2024-03-02T09:42:12;143810.09;;;8.92;100.00
5877;BME280;2964;42.144;24.730;2024-03-02T09:44:39;143899.19;;;9.28;100.00
5877;BME280;2964;42.144;24.730;2024-03-02T09:47:08;143910.47;;;9.33;100.00
5877;BME280;2964;42.144;24.730;2024-03-02T09:49:35;143900.44;;;9.29;100.00
5877;BME280;2964;42.144;24.730;2024-03-02T09:52:03;143895.41;;;9.27;100.00
5877;BME280;2964;42.144;24.730;2024-03-02T09:54:32;143884.16;;;9.22;100.00
5877;BME280;2964;42.144;24.730;2024-03-02T09:56:59;143923.00;;;9.38;100.00
5877;BME280;2964;42.144;24.730;2024-03-02T09:59:27;143939.34;;;9.45;100.00
5877;BME280;2964;42.144;24.730;2024-03-02T10:01:58;143988.31;;;9.65;100.00
5877;BME280;2964;42.144;24.730;2024-03-02T10:04:27;144008.38;;;9.73;100.00
5877;BME280;2964;42.144;24.730;2024-03-02T10:07:14;143975.75;;;9.60;100.00
5877;BME280;2964;42.144;24.730;2024-03-02T10:09:42;144149.03;;;10.31;100.00
5877;BME280;2964;42.144;24.730;2024-03-02T10:12:11;144084.94;;;10.04;100.00
5877;BME280;2964;42.144;24.730;2024-03-02T10:14:38;144111.31;;;10.15;100.00
5877;BME280;2964;42.144;24.730;2024-03-02T10:17:05;143988.31;;;9.65;100.00
5877;BME280;2964;42.144;24.730;2024-03-02T10:19:34;144156.56;;;10.34;100.00
5877;BME280;2964;42.144;24.730;2024-03-02T10:22:03;144186.72;;;10.46;100.00
5877;BME280;2964;42.144;24.730;2024-03-02T10:24:35;144234.44;;;10.66;100.00
5877;BME280;2964;42.144;24.730;2024-03-02T10:27:07;144303.56;;;10.94;100.00
5877;BME280;2964;42.144;24.730;2024-03-02T10:29:37;144362.63;;;11.18;100.00
5877;BME280;2964;42.144;24.730;2024-03-02T10:32:05;144432.97;;;11.47;100.00
5877;BME280;2964;42.144;24.730;2024-03-02T10:34:34;144419.16;;;11.41;100.00
5877;BME280;2964;42.144;24.730;2024-03-02T10:37:01;144558.75;;;11.98;99.65
5877;BME280;2964;42.144;24.730;2024-03-02T10:39:28;144571.34;;;12.03;99.96
5877;BME280;2964;42.144;24.730;2024-03-02T10:41:57;144571.34;;;12.03;99.24
5877;BME280;2964;42.144;24.730;2024-03-02T10:44:25;144549.94;;;11.94;98.34
5877;BME280;2964;42.144;24.730;2024-03-02T10:46:53;144493.34;;;11.71;98.96
5877;BME280;2964;42.144;24.730;2024-03-02T10:49:22;144361.31;;;11.17;100.00
5877;BME280;2964;42.144;24.730;2024-03-02T10:51:51;144465.69;;;11.60;100.00
5877;BME280;2964;42.144;24.730;2024-03-02T10:54:17;144523.50;;;11.84;100.00
5877;BME280;2964;42.144;24.730;2024-03-02T10:56:51;144289.75;;;10.88;99.43
5877;BME280;2964;42.144;24.730;2024-03-02T10:59:26;144503.38;;;11.75;99.84
5877;BME280;2964;42.144;24.730;2024-03-02T11:01:55;144508.41;;;11.77;99.42
5877;BME280;2964;42.144;24.730;2024-03-02T11:04:24;144475.75;;;11.64;100.00
5877;BME280;2964;42.144;24.730;2024-03-02T11:06:59;144557.50;;;11.97;98.83
5877;BME280;2964;42.144;24.730;2024-03-02T11:09:28;144445.56;;;11.52;99.93
5877;BME280;2964;42.144;24.730;2024-03-02T11:12:00;144523.50;;;11.84;99.51
5877;BME280;2964;42.144;24.730;2024-03-02T11:14:30;144485.78;;;11.68;99.64
5877;BME280;2964;42.144;24.730;2024-03-02T11:16:58;144376.44;;;11.24;100.00
5877;BME280;2964;42.144;24.730;2024-03-02T11:19:27;144377.69;;;11.24;100.00
5877;BME280;2964;42.144;24.730;2024-03-02T11:21:56;144468.19;;;11.61;99.86
5877;BME280;2964;42.144;24.730;2024-03-02T11:24:30;144377.69;;;11.24;99.29
5877;BME280;2964;42.144;24.730;2024-03-02T11:27:00;144498.38;;;11.73;99.47
5877;BME280;2964;42.144;24.730;2024-03-02T11:29:43;144422.94;;;11.43;99.75
5877;BME280;2964;42.144;24.730;2024-03-02T11:32:14;144390.25;;;11.29;99.25
5877;BME280;2964;42.144;24.730;2024-03-02T11:34:42;144480.75;;;11.66;98.61
5877;BME280;2964;42.144;24.730;2024-03-02T11:37:12;144284.69;;;10.86;99.78
5877;BME280;2964;42.144;24.730;2024-03-02T11:39:40;144415.38;;;11.39;99.62
5877;BME280;2964;42.144;24.730;2024-03-02T11:42:07;144294.75;;;10.90;99.93
5877;BME280;2964;42.144;24.730;2024-03-02T11:44:35;144444.31;;;11.51;99.71
5877;BME280;2964;42.144;24.730;2024-03-02T11:47:05;144247.00;;;10.71;99.60
5877;BME280;2964;42.144;24.730;2024-03-02T11:49:39;144216.84;;;10.58;100.00
5877;BME280;2964;42.144;24.730;2024-03-02T11:52:07;144313.59;;;10.98;99.96
5877;BME280;2964;42.144;24.730;2024-03-02T11:54:36;144363.88;;;11.18;99.32
5877;BME280;2964;42.144;24.730;2024-03-02T11:57:05;144464.41;;;11.59;98.36
5877;BME280;2964;42.144;24.730;2024-03-02T11:59:32;144459.38;;;11.57;99.06
5877;BME280;2964;42.144;24.730;2024-03-02T12:01:59;144484.53;;;11.68;98.69
5877;BME280;2964;42.144;24.730;2024-03-02T12:04:29;144565.03;;;12.01;98.46
5877;BME280;2964;42.144;24.730;2024-03-02T12:06:57;144483.25;;;11.67;99.32
5877;BME280;2964;42.144;24.730;2024-03-02T12:09:26;144529.81;;;11.86;98.56
5877;BME280;2964;42.144;24.730;2024-03-02T12:12:12;144614.06;;;12.21;98.77
5877;BME280;2964;42.144;24.730;2024-03-02T12:14:50;144556.25;;;11.97;98.24
5877;BME280;2964;42.144;24.730;2024-03-02T12:17:17;144641.75;;;12.32;98.22
5877;BME280;2964;42.144;24.730;2024-03-02T12:19:44;144673.19;;;12.45;98.46
5877;BME280;2964;42.144;24.730;2024-03-02T12:22:11;144596.47;;;12.13;99.05
5877;BME280;2964;42.144;24.730;2024-03-02T12:24:38;144629.19;;;12.27;99.24
5877;BME280;2964;42.144;24.730;2024-03-02T12:27:05;144634.22;;;12.29;98.71
5877;BME280;2964;42.144;24.730;2024-03-02T12:29:34;144721.00;;;12.64;98.29
5877;BME280;2964;42.144;24.730;2024-03-02T12:32:00;144794.00;;;12.94;96.82
5877;BME280;2964;42.144;24.730;2024-03-02T12:34:28;144717.22;;;12.63;97.61
5877;BME280;2964;42.144;24.730;2024-03-02T12:36:55;144741.13;;;12.72;96.52
5877;BME280;2964;42.144;24.730;2024-03-02T12:39:21;144562.53;;;12.00;98.28
5877;BME280;2964;42.144;24.730;2024-03-02T12:41:49;144627.91;;;12.26;99.37
5877;BME280;2964;42.144;24.730;2024-03-02T12:44:16;144480.75;;;11.66;99.92
5877;BME280;2964;42.144;24.730;2024-03-02T12:46:45;144553.72;;;11.96;100.00
5877;BME280;2964;42.144;24.730;2024-03-02T12:49:13;144566.31;;;12.01;98.55
5877;BME280;2964;42.144;24.730;2024-03-02T12:51:41;144656.88;;;12.38;97.77
5877;BME280;2964;42.144;24.730;2024-03-02T12:54:09;144529.81;;;11.86;98.42
5877;BME280;2964;42.144;24.730;2024-03-02T12:56:36;144531.03;;;11.87;98.86
5877;BME280;2964;42.144;24.730;2024-03-02T12:59:03;144599.00;;;12.14;99.07
5877;BME280;2964;42.144;24.730;2024-03-02T13:01:30;144490.81;;;11.70;99.38
5877;BME280;2964;42.144;24.730;2024-03-02T13:03:59;144372.66;;;11.22;99.82